createdAt,value
2019-02-16T00:01:44.567Z,3.80
2019-02-16T00:04:14.329Z,3.80
2019-02-16T00:06:42.193Z,3.80
2019-02-16T00:09:09.790Z,3.70
2019-02-16T00:11:38.052Z,3.70
2019-02-16T00:14:12.671Z,3.70
2019-02-16T00:24:30.005Z,3.90
2019-02-16T00:27:36.688Z,3.90
2019-02-16T00:30:21.324Z,3.90
2019-02-16T00:32:49.389Z,3.80
2019-02-16T00:35:17.092Z,3.70
2019-02-16T00:37:44.692Z,3.60
2019-02-16T00:40:12.468Z,3.50
2019-02-16T00:42:41.273Z,3.40
2019-02-16T00:45:11.312Z,3.40
2019-02-16T00:47:43.701Z,3.30
2019-02-16T00:50:11.522Z,3.30
2019-02-16T00:52:44.871Z,3.30
2019-02-16T00:55:15.030Z,3.30
2019-02-16T00:57:44.485Z,3.30
2019-02-16T01:00:14.977Z,3.30
2019-02-16T01:02:44.204Z,3.30
2019-02-16T01:05:14.582Z,3.30
2019-02-16T01:07:44.628Z,3.40
2019-02-16T01:10:14.060Z,3.40
2019-02-16T01:12:41.650Z,3.30
2019-02-16T01:15:09.570Z,3.10
2019-02-16T01:17:37.272Z,3.10
2019-02-16T01:27:08.803Z,3.10
2019-02-16T01:29:36.488Z,3.00
2019-02-16T01:32:04.094Z,2.90
2019-02-16T01:34:31.733Z,2.80
2019-02-16T01:36:59.327Z,2.70
2019-02-16T01:39:28.164Z,2.60
2019-02-16T01:41:55.970Z,2.50
2019-02-16T01:44:25.730Z,2.60
2019-02-16T01:46:53.679Z,2.60
2019-02-16T01:49:24.234Z,2.50
2019-02-16T01:55:53.816Z,2.40
2019-02-16T01:58:34.891Z,2.30
2019-02-16T02:01:22.089Z,2.30
2019-02-16T02:03:52.760Z,2.30
2019-02-16T02:06:22.112Z,2.30
2019-02-16T02:08:49.710Z,2.30
2019-02-16T02:11:17.862Z,2.30
2019-02-16T02:13:46.586Z,2.40
2019-02-16T02:16:18.383Z,2.40
2019-02-16T02:40:29.657Z,2.50
2019-02-16T02:43:15.408Z,2.60
2019-02-16T02:46:09.716Z,2.80
2019-02-16T02:48:38.936Z,2.90
2019-02-16T02:51:11.903Z,3.00
2019-02-16T02:53:42.601Z,2.90
2019-02-16T02:56:12.921Z,2.90
2019-02-16T02:58:51.502Z,2.90
2019-02-16T03:01:23.628Z,2.90
2019-02-16T03:04:05.902Z,2.80
2019-02-16T03:20:28.270Z,2.80
2019-02-16T03:23:15.764Z,2.50
2019-02-16T03:25:52.951Z,2.40
2019-02-16T03:28:39.366Z,2.30
2019-02-16T03:31:29.872Z,2.30
2019-02-16T03:34:03.584Z,2.20
2019-02-16T03:37:26.970Z,2.20
2019-02-16T03:39:54.955Z,2.10
2019-02-16T03:42:24.621Z,2.00
2019-02-16T03:44:53.673Z,2.00
2019-02-16T03:47:23.594Z,2.00
2019-02-16T03:49:51.888Z,2.10
2019-02-16T03:52:20.816Z,2.10
2019-02-16T04:05:09.935Z,2.20
2019-02-16T04:07:45.635Z,2.20
2019-02-16T04:10:24.387Z,2.20
2019-02-16T04:13:25.000Z,2.10
2019-02-16T04:16:05.986Z,2.00
2019-02-16T04:18:40.019Z,2.00
2019-02-16T04:21:09.588Z,2.00
2019-02-16T04:23:45.353Z,2.10
2019-02-16T04:26:35.587Z,2.10
2019-02-16T04:29:23.886Z,2.20
2019-02-16T04:32:26.674Z,2.40
2019-02-16T04:35:58.684Z,2.50
2019-02-16T04:43:29.984Z,2.70
2019-02-16T04:44:57.271Z,2.80
2019-02-16T04:47:31.584Z,3.00
2019-02-16T04:50:04.729Z,2.90
2019-02-16T04:52:47.149Z,3.00
2019-02-16T05:03:19.152Z,3.00
2019-02-16T05:06:33.376Z,2.90
2019-02-16T05:09:41.370Z,2.80
2019-02-16T05:12:14.631Z,2.70
2019-02-16T05:14:42.246Z,2.70
2019-02-16T05:17:10.739Z,2.70
2019-02-16T05:19:44.386Z,2.70
2019-02-16T05:22:12.032Z,2.70
2019-02-16T05:24:39.661Z,2.70
2019-02-16T05:27:07.301Z,2.70
2019-02-16T05:29:35.299Z,2.70
2019-02-16T05:32:06.154Z,2.70
2019-02-16T05:34:34.796Z,2.80
2019-02-16T05:37:03.653Z,2.80
2019-02-16T05:39:37.872Z,2.90
2019-02-16T05:42:08.449Z,3.00
2019-02-16T05:45:07.554Z,3.10
2019-02-16T05:48:09.263Z,3.20
2019-02-16T05:55:42.457Z,3.20
2019-02-16T05:59:20.381Z,3.20
2019-02-16T06:05:53.700Z,3.10
2019-02-16T06:08:53.018Z,3.00
2019-02-16T06:18:54.217Z,2.90
2019-02-16T06:21:48.952Z,2.80
2019-02-16T06:28:29.930Z,2.80
2019-02-16T06:37:24.197Z,2.90
2019-02-16T06:39:56.649Z,2.90
2019-02-16T06:46:19.220Z,2.90
2019-02-16T06:49:57.124Z,2.90
2019-02-16T06:52:26.567Z,2.80
2019-02-16T06:55:31.608Z,2.80
2019-02-16T06:58:30.992Z,2.70
2019-02-16T07:01:36.807Z,2.70
2019-02-16T07:04:22.193Z,2.60
2019-02-16T07:07:06.378Z,2.60
2019-02-16T07:09:37.845Z,2.70
2019-02-16T07:12:39.462Z,2.60
2019-02-16T07:16:20.427Z,2.70
2019-02-16T07:23:37.363Z,2.90
2019-02-16T07:26:31.371Z,3.10
2019-02-16T07:29:23.991Z,3.10
2019-02-16T07:35:57.869Z,3.30
2019-02-16T07:38:38.822Z,3.30
2019-02-16T07:41:13.527Z,3.40
2019-02-16T07:43:59.149Z,3.40
2019-02-16T07:46:46.565Z,3.40
2019-02-16T07:49:19.172Z,3.40
2019-02-16T07:51:53.012Z,3.50
2019-02-16T07:54:51.376Z,3.60
2019-02-16T07:57:47.842Z,3.70
2019-02-16T08:00:42.019Z,3.90
2019-02-16T08:03:47.692Z,4.00
2019-02-16T08:06:47.518Z,4.10
2019-02-16T08:12:30.027Z,4.20
2019-02-16T08:15:26.381Z,4.30
2019-02-16T08:18:16.361Z,4.50
2019-02-16T08:21:09.402Z,4.60
2019-02-16T08:24:01.186Z,4.70
2019-02-16T08:26:51.718Z,4.80
2019-02-16T08:29:35.885Z,4.80
2019-02-16T08:32:21.652Z,4.90
2019-02-16T08:35:07.434Z,5.10
2019-02-16T08:37:42.084Z,5.20
2019-02-16T08:40:16.310Z,5.40
2019-02-16T08:43:00.616Z,5.50
2019-02-16T08:45:40.495Z,5.50
2019-02-16T08:48:22.278Z,5.60
2019-02-16T08:50:55.799Z,5.80
2019-02-16T08:53:58.153Z,5.90
2019-02-16T08:56:44.461Z,6.00
2019-02-16T08:59:46.534Z,6.10
2019-02-16T09:02:39.722Z,6.20
2019-02-16T09:05:22.092Z,6.30
2019-02-16T09:07:57.327Z,6.40
2019-02-16T09:10:47.419Z,6.50
2019-02-16T09:13:53.084Z,6.70
2019-02-16T09:16:45.942Z,6.80
2019-02-16T09:19:23.064Z,7.00
2019-02-16T09:25:18.187Z,7.20
2019-02-16T09:28:01.435Z,7.20
2019-02-16T09:30:47.187Z,7.30
2019-02-16T09:33:25.128Z,7.50
2019-02-16T09:36:01.751Z,7.60
2019-02-16T09:38:49.329Z,7.70
2019-02-16T09:41:24.312Z,7.90
2019-02-16T09:44:08.947Z,8.00
2019-02-16T09:46:56.974Z,8.20
2019-02-16T09:49:44.044Z,8.20
2019-02-16T09:52:23.344Z,8.40
2019-02-16T09:54:59.512Z,8.60
2019-02-16T09:57:53.941Z,8.80
2019-02-16T10:00:46.974Z,8.90
2019-02-16T10:03:31.637Z,9.00
2019-02-16T10:06:30.651Z,9.30
2019-02-16T10:09:13.089Z,9.40
2019-02-16T10:12:05.075Z,9.60
2019-02-16T10:15:01.944Z,9.60
2019-02-16T10:18:16.692Z,9.80
2019-02-16T10:20:52.821Z,9.90
2019-02-16T10:23:48.931Z,10.00
2019-02-16T10:26:42.185Z,10.00
2019-02-16T10:29:28.274Z,10.10
2019-02-16T10:32:14.539Z,10.20
2019-02-16T10:35:07.305Z,10.30
2019-02-16T10:38:03.712Z,10.50
2019-02-16T10:41:01.612Z,10.60
2019-02-16T10:43:43.358Z,10.60
2019-02-16T10:46:30.883Z,10.60
2019-02-16T10:49:33.033Z,10.70
2019-02-16T10:52:23.089Z,10.80
2019-02-16T10:55:07.551Z,10.90
2019-02-16T10:57:43.330Z,11.10
2019-02-16T11:00:30.585Z,11.20
2019-02-16T11:03:25.501Z,11.20
2019-02-16T11:06:02.676Z,11.30
2019-02-16T11:08:58.877Z,11.30
2019-02-16T11:11:42.826Z,11.40
2019-02-16T11:14:32.944Z,11.50
2019-02-16T11:17:22.298Z,11.70
2019-02-16T11:20:02.127Z,11.90
2019-02-16T11:22:40.457Z,12.00
2019-02-16T11:25:26.470Z,12.10
2019-02-16T11:28:13.670Z,12.10
2019-02-16T11:30:48.679Z,12.30
2019-02-16T11:33:44.713Z,12.30
2019-02-16T11:36:29.479Z,12.30
2019-02-16T11:39:12.098Z,12.40
2019-02-16T11:41:53.361Z,12.50
2019-02-16T11:44:39.110Z,12.60
2019-02-16T11:47:37.856Z,12.70
2019-02-16T11:50:23.261Z,12.90
2019-02-16T11:53:13.320Z,13.00
2019-02-16T11:55:52.007Z,13.10
2019-02-16T11:58:53.693Z,13.20
2019-02-16T12:01:52.541Z,13.10
2019-02-16T12:04:40.946Z,13.20
2019-02-16T12:07:28.346Z,13.30
2019-02-16T12:10:06.159Z,13.50
2019-02-16T12:12:52.412Z,13.60
2019-02-16T12:15:59.955Z,13.60
2019-02-16T12:18:59.162Z,13.60
2019-02-16T12:21:44.913Z,13.60
2019-02-16T12:25:05.744Z,13.80
2019-02-16T12:27:44.231Z,13.90
2019-02-16T12:30:46.719Z,13.70
2019-02-16T12:33:39.264Z,13.80
2019-02-16T12:36:26.337Z,13.90
2019-02-16T12:39:12.360Z,14.00
2019-02-16T12:41:50.394Z,14.10
2019-02-16T12:44:35.620Z,14.20
2019-02-16T12:47:21.555Z,14.20
2019-02-16T12:50:05.304Z,14.30
2019-02-16T12:53:08.364Z,14.40
2019-02-16T12:55:55.453Z,14.50
2019-02-16T12:58:37.332Z,14.50
2019-02-16T13:01:47.878Z,14.70
2019-02-16T13:04:33.692Z,14.70
2019-02-16T13:07:16.072Z,14.80
2019-02-16T13:09:53.388Z,14.90
2019-02-16T13:12:49.777Z,14.80
2019-02-16T13:15:39.688Z,14.90
2019-02-16T13:18:21.172Z,15.10
2019-02-16T13:21:20.451Z,15.10
2019-02-16T13:23:53.419Z,15.00
2019-02-16T13:26:52.718Z,15.20
2019-02-16T13:29:37.183Z,15.10
2019-02-16T13:32:24.247Z,15.20
2019-02-16T13:35:07.272Z,15.30
2019-02-16T13:37:57.689Z,15.40
2019-02-16T13:40:53.662Z,15.50
2019-02-16T13:43:44.671Z,15.50
2019-02-16T13:46:20.130Z,15.40
2019-02-16T13:49:01.797Z,15.30
2019-02-16T13:51:47.405Z,15.30
2019-02-16T13:54:19.763Z,15.30
2019-02-16T13:57:09.484Z,15.30
2019-02-16T13:59:47.764Z,15.20
2019-02-16T14:02:40.893Z,15.30
2019-02-16T14:05:28.343Z,15.30
2019-02-16T14:08:29.211Z,15.30
2019-02-16T14:11:08.709Z,15.30
2019-02-16T14:13:56.475Z,15.40
2019-02-16T14:16:52.457Z,15.40
2019-02-16T14:19:20.053Z,15.50
2019-02-16T14:21:47.599Z,15.60
2019-02-16T14:24:17.291Z,15.60
2019-02-16T14:26:48.385Z,15.70
2019-02-16T14:29:18.101Z,15.80
2019-02-16T14:31:45.723Z,15.80
2019-02-16T14:34:16.237Z,15.90
2019-02-16T14:36:53.129Z,15.80
2019-02-16T14:39:30.815Z,15.70
2019-02-16T14:42:02.899Z,15.60
2019-02-16T14:44:32.736Z,15.50
2019-02-16T14:47:00.432Z,15.50
2019-02-16T14:49:28.062Z,15.40
2019-02-16T14:51:58.269Z,15.40
2019-02-16T14:54:30.672Z,15.30
2019-02-16T14:57:04.863Z,15.30
2019-02-16T14:59:34.793Z,15.30
2019-02-16T15:02:03.453Z,15.30
2019-02-16T15:04:36.791Z,15.20
2019-02-16T15:07:06.749Z,15.10
2019-02-16T15:09:34.325Z,15.10
2019-02-16T15:12:02.172Z,15.00
2019-02-16T15:14:35.604Z,14.90
2019-02-16T15:17:03.198Z,14.90
2019-02-16T15:19:31.019Z,14.90
2019-02-16T15:21:58.645Z,14.90
2019-02-16T15:24:27.508Z,14.90
2019-02-16T15:26:57.426Z,14.80
2019-02-16T15:29:26.239Z,14.80
2019-02-16T15:31:56.077Z,14.90
2019-02-16T15:34:23.842Z,14.80
2019-02-16T15:36:54.238Z,14.80
2019-02-16T15:39:27.759Z,14.70
2019-02-16T15:41:55.335Z,14.70
2019-02-16T15:44:23.035Z,14.60
2019-02-16T15:47:10.526Z,14.50
2019-02-16T15:49:38.178Z,14.60
2019-02-16T15:52:06.033Z,14.60
2019-02-16T15:54:44.350Z,14.60
2019-02-16T15:57:16.961Z,14.60
2019-02-16T15:59:45.861Z,14.60
2019-02-16T16:02:13.444Z,14.50
2019-02-16T16:04:48.514Z,14.40
2019-02-16T16:07:17.338Z,14.40
2019-02-16T16:10:24.339Z,14.40
2019-02-16T16:13:11.562Z,14.30
2019-02-16T16:15:57.540Z,14.20
2019-02-16T16:18:50.610Z,14.10
2019-02-16T16:21:43.904Z,14.00
2019-02-16T16:24:29.710Z,13.80
2019-02-16T16:27:27.586Z,13.60
2019-02-16T16:30:34.923Z,13.50
2019-02-16T16:33:37.994Z,13.30
2019-02-16T16:39:51.211Z,12.80
2019-02-16T16:42:37.711Z,12.70
2019-02-16T16:45:27.413Z,12.50
2019-02-16T16:48:11.121Z,12.20
2019-02-16T16:51:07.208Z,12.00
2019-02-16T16:53:47.544Z,11.70
2019-02-16T16:56:36.173Z,11.60
2019-02-16T16:59:21.554Z,11.50
2019-02-16T17:02:27.004Z,11.30
2019-02-16T17:05:15.775Z,11.10
2019-02-16T17:08:08.961Z,11.00
2019-02-16T17:10:45.624Z,10.80
2019-02-16T17:13:32.300Z,10.70
2019-02-16T17:16:34.597Z,10.60
2019-02-16T17:19:21.948Z,10.50
2019-02-16T17:22:17.573Z,10.30
2019-02-16T17:24:50.336Z,10.20
2019-02-16T17:27:40.956Z,10.10
2019-02-16T17:30:25.805Z,9.90
2019-02-16T17:33:19.068Z,9.80
2019-02-16T17:36:09.268Z,9.60
2019-02-16T17:39:13.998Z,9.40
2019-02-16T17:42:13.167Z,9.50
2019-02-16T17:44:50.666Z,9.50
2019-02-16T17:47:46.867Z,9.40
2019-02-16T17:50:46.329Z,9.20
2019-02-16T17:53:29.203Z,9.10
2019-02-16T17:56:26.670Z,9.00
2019-02-16T17:59:11.451Z,8.90
2019-02-16T18:02:08.129Z,8.80
2019-02-16T18:04:41.982Z,8.70
2019-02-16T18:07:42.327Z,8.60
2019-02-16T18:10:19.813Z,8.50
2019-02-16T18:13:12.785Z,8.40
2019-02-16T18:15:52.740Z,8.30
2019-02-16T18:18:42.471Z,8.20
2019-02-16T18:21:25.519Z,8.10
2019-02-16T18:24:18.607Z,8.00
2019-02-16T18:26:59.202Z,8.00
2019-02-16T18:29:52.303Z,7.90
2019-02-16T18:32:45.087Z,7.80
2019-02-16T18:35:29.577Z,7.60
2019-02-16T18:38:14.873Z,7.40
2019-02-16T18:41:11.174Z,7.40
2019-02-16T18:43:50.746Z,7.40
2019-02-16T18:46:37.930Z,7.40
2019-02-16T18:49:31.063Z,7.50
2019-02-16T18:52:17.000Z,7.50
2019-02-16T18:55:10.208Z,7.40
2019-02-16T18:57:41.865Z,7.30
2019-02-16T19:00:32.344Z,7.20
2019-02-16T19:03:28.029Z,7.20
2019-02-16T19:06:15.270Z,7.10
2019-02-16T19:09:02.515Z,7.20
2019-02-16T19:11:50.741Z,7.20
2019-02-16T19:14:34.779Z,7.10
2019-02-16T19:17:13.507Z,7.10
2019-02-16T19:20:12.650Z,7.00
2019-02-16T19:22:59.880Z,6.80
2019-02-16T19:25:53.039Z,6.60
2019-02-16T19:28:34.184Z,6.50
2019-02-16T19:31:17.841Z,6.40
2019-02-16T19:34:07.878Z,6.40
2019-02-16T19:36:55.103Z,6.30
2019-02-16T19:39:29.741Z,6.20
2019-02-16T19:42:17.009Z,6.20
2019-02-16T19:45:02.591Z,6.10
2019-02-16T19:47:48.579Z,6.10
2019-02-16T19:50:35.701Z,6.00
2019-02-16T19:53:31.803Z,5.90
2019-02-16T19:56:09.261Z,5.90
2019-02-16T19:59:08.035Z,5.80
2019-02-16T20:01:53.771Z,5.80
2019-02-16T20:04:45.381Z,5.90
2019-02-16T20:07:34.029Z,6.00
2019-02-16T20:10:30.072Z,6.00
2019-02-16T20:13:20.217Z,5.90
2019-02-16T20:15:58.993Z,5.80
2019-02-16T20:18:33.672Z,5.60
2019-02-16T20:21:39.102Z,5.60
2019-02-16T20:24:25.606Z,5.60
2019-02-16T20:27:07.797Z,5.50
2019-02-16T20:30:01.139Z,5.50
2019-02-16T20:32:49.942Z,5.40
2019-02-16T20:35:37.071Z,5.40
2019-02-16T20:38:16.936Z,5.40
2019-02-16T20:41:06.859Z,5.40
2019-02-16T20:44:11.930Z,5.30
2019-02-16T20:47:01.744Z,5.30
2019-02-16T20:49:47.288Z,5.20
2019-02-16T20:52:41.073Z,5.10
2019-02-16T20:55:24.535Z,5.00
2019-02-16T20:58:34.159Z,5.00
2019-02-16T21:01:31.519Z,5.00
2019-02-16T21:04:20.886Z,5.00
2019-02-16T21:07:19.850Z,4.90
2019-02-16T21:10:33.480Z,4.90
2019-02-16T21:13:37.910Z,4.80
2019-02-16T21:16:24.180Z,4.70
2019-02-16T21:19:23.155Z,4.70
2019-02-16T21:22:28.197Z,4.70
2019-02-16T21:25:15.774Z,4.60
2019-02-16T21:28:15.030Z,4.40
2019-02-16T21:31:18.216Z,4.40
2019-02-16T21:34:15.266Z,4.40
2019-02-16T21:36:58.804Z,4.40
2019-02-16T21:39:46.439Z,4.50
2019-02-16T21:42:51.284Z,4.50
2019-02-16T21:45:39.612Z,4.60
2019-02-16T21:48:38.850Z,4.50
2019-02-16T21:51:44.868Z,4.50
2019-02-16T21:54:51.131Z,4.50
2019-02-16T21:57:45.426Z,4.40
2019-02-16T22:00:51.039Z,4.40
2019-02-16T22:03:45.473Z,4.30
2019-02-16T22:06:56.052Z,4.30
2019-02-16T22:10:03.969Z,4.30
2019-02-16T22:13:06.005Z,4.30
2019-02-16T22:15:47.135Z,4.30
2019-02-16T22:18:25.437Z,4.40
2019-02-16T22:21:08.129Z,4.30
2019-02-16T22:23:56.147Z,4.30
2019-02-16T22:26:48.688Z,4.30
2019-02-16T22:29:29.405Z,4.30
2019-02-16T22:32:06.538Z,4.20
2019-02-16T22:34:56.439Z,4.10
2019-02-16T22:37:46.951Z,4.00
2019-02-16T22:40:25.047Z,4.00
2019-02-16T22:42:54.892Z,3.90
2019-02-16T22:45:29.645Z,4.00
2019-02-16T22:48:17.973Z,3.90
2019-02-16T22:51:00.425Z,3.90
2019-02-16T22:53:49.211Z,3.90
2019-02-16T22:56:29.553Z,3.80
2019-02-16T22:59:16.933Z,3.80
2019-02-16T23:02:08.634Z,3.70
2019-02-16T23:05:14.680Z,3.70
2019-02-16T23:07:56.868Z,3.70
2019-02-16T23:10:38.061Z,3.60
2019-02-16T23:13:43.410Z,3.50
2019-02-16T23:16:35.013Z,3.50
2019-02-16T23:19:26.375Z,3.40
2019-02-16T23:23:05.611Z,3.50
2019-02-16T23:26:00.727Z,3.40
2019-02-16T23:36:08.565Z,3.30
2019-02-16T23:39:12.556Z,3.20
2019-02-16T23:42:44.226Z,3.20
2019-02-16T23:48:51.442Z,3.10
2019-02-16T23:51:53.488Z,3.10
2019-02-16T23:55:08.052Z,3.20
2019-02-16T23:57:52.490Z,3.20
